createdAt,value
2019-04-22T00:00:37.247Z,45.39
2019-04-22T00:01:36.843Z,45.08
2019-04-22T00:02:40.028Z,45.08
2019-04-22T00:03:43.479Z,45.59
2019-04-22T00:04:48.506Z,46.20
2019-04-22T00:05:56.405Z,45.61
2019-04-22T00:06:58.388Z,45.69
2019-04-22T00:08:01.651Z,45.28
2019-04-22T00:09:07.895Z,45.39
2019-04-22T00:11:04.884Z,45.31
2019-04-22T00:12:09.377Z,45.51
2019-04-22T00:13:00.081Z,45.20
2019-04-22T00:15:02.511Z,45.20
2019-04-22T00:15:55.976Z,45.51
2019-04-22T00:17:07.292Z,46.33
2019-04-22T00:20:06.117Z,47.72
2019-04-22T00:21:04.768Z,47.80
2019-04-22T00:22:04.536Z,47.49
2019-04-22T00:22:57.803Z,47.41
2019-04-22T00:23:59.069Z,47.52
2019-04-22T00:25:01.385Z,47.41
2019-04-22T00:26:03.890Z,47.72
2019-04-22T00:27:05.190Z,48.00
2019-04-22T00:28:05.073Z,47.11
2019-04-22T00:29:21.367Z,47.49
2019-04-22T00:30:09.085Z,47.69
2019-04-22T00:31:06.734Z,47.19
2019-04-22T00:32:00.303Z,47.39
2019-04-22T00:32:55.876Z,47.08
2019-04-22T00:33:57.725Z,46.98
2019-04-22T00:35:00.309Z,46.78
2019-04-22T00:36:01.190Z,46.57
2019-04-22T00:37:00.937Z,46.37
2019-04-22T00:38:06.904Z,46.78
2019-04-22T00:38:58.768Z,46.37
2019-04-22T00:39:57.506Z,46.47
2019-04-22T00:41:01.108Z,46.57
2019-04-22T00:42:03.239Z,46.57
2019-04-22T00:43:01.195Z,46.26
2019-04-22T00:44:03.957Z,46.26
2019-04-22T00:45:56.215Z,46.47
2019-04-22T00:47:01.125Z,46.47
2019-04-22T00:48:07.290Z,46.37
2019-04-22T00:49:44.103Z,46.57
2019-04-22T00:51:06.342Z,46.57
2019-04-22T00:52:06.313Z,46.37
2019-04-22T00:53:04.556Z,46.37
2019-04-22T00:54:04.183Z,46.37
2019-04-22T00:55:06.114Z,46.57
2019-04-22T00:56:00.588Z,46.57
2019-04-22T00:57:05.423Z,46.67
2019-04-22T00:58:06.130Z,46.80
2019-04-22T00:59:01.645Z,46.90
2019-04-22T01:00:03.694Z,46.90
2019-04-22T01:01:04.731Z,46.90
2019-04-22T01:02:01.918Z,46.90
2019-04-22T01:03:02.613Z,47.11
2019-04-22T01:04:04.335Z,47.00
2019-04-22T01:05:04.132Z,47.00
2019-04-22T01:06:03.294Z,47.00
2019-04-22T01:07:02.028Z,47.00
2019-04-22T01:08:04.376Z,47.11
2019-04-22T01:10:07.524Z,47.20
2019-04-22T01:11:06.345Z,47.11
2019-04-22T01:12:03.943Z,47.11
2019-04-22T01:12:57.197Z,47.11
2019-04-22T01:15:00.857Z,47.00
2019-04-22T01:16:04.517Z,47.31
2019-04-22T01:16:59.376Z,47.31
2019-04-22T01:17:57.836Z,47.31
2019-04-22T01:19:00.425Z,47.41
2019-04-22T01:21:58.309Z,47.33
2019-04-22T01:22:58.995Z,47.53
2019-04-22T01:23:51.904Z,47.64
2019-04-22T01:24:57.569Z,47.76
2019-04-22T01:25:53.086Z,47.76
2019-04-22T01:26:50.762Z,47.86
2019-04-22T01:27:48.830Z,47.86
2019-04-22T01:28:52.902Z,47.97
2019-04-22T01:29:46.304Z,48.07
2019-04-22T01:30:43.901Z,48.17
2019-04-22T01:31:38.070Z,48.27
2019-04-22T01:32:41.261Z,48.40
2019-04-22T01:33:40.853Z,48.60
2019-04-22T01:34:51.476Z,48.60
2019-04-22T01:35:53.852Z,48.60
2019-04-22T01:36:55.820Z,48.71
2019-04-22T01:37:52.534Z,48.71
2019-04-22T01:38:58.525Z,48.81
2019-04-22T01:41:02.785Z,48.91
2019-04-22T01:42:10.419Z,49.01
2019-04-22T01:43:03.846Z,49.01
2019-04-22T01:44:10.644Z,48.91
2019-04-22T01:45:01.384Z,49.01
2019-04-22T01:46:02.638Z,49.22
2019-04-22T01:47:08.277Z,49.22
2019-04-22T01:48:00.839Z,49.22
2019-04-22T01:48:59.978Z,49.32
2019-04-22T01:50:00.685Z,49.32
2019-04-22T01:50:54.809Z,49.42
2019-04-22T01:52:10.204Z,49.52
2019-04-22T01:53:06.418Z,49.52
2019-04-22T01:54:03.918Z,49.63
2019-04-22T01:55:12.626Z,49.63
2019-04-22T01:56:02.006Z,49.63
2019-04-22T01:56:59.925Z,49.73
2019-04-22T01:57:53.553Z,49.73
2019-04-22T01:58:54.906Z,49.73
2019-04-22T01:59:53.473Z,49.83
2019-04-22T02:00:59.722Z,49.93
2019-04-22T02:03:07.133Z,50.04
2019-04-22T02:04:02.738Z,50.04
2019-04-22T02:04:59.628Z,50.04
2019-04-22T02:05:58.807Z,50.06
2019-04-22T02:07:04.627Z,50.06
2019-04-22T02:08:11.269Z,50.16
2019-04-22T02:09:24.484Z,50.16
2019-04-22T02:11:00.988Z,50.16
2019-04-22T02:12:00.599Z,50.16
2019-04-22T02:13:01.492Z,50.16
2019-04-22T02:14:04.370Z,50.06
2019-04-22T02:15:00.766Z,49.85
2019-04-22T02:15:58.505Z,49.85
2019-04-22T02:17:02.631Z,49.75
2019-04-22T02:18:01.337Z,49.96
2019-04-22T02:19:02.409Z,49.96
2019-04-22T02:20:06.670Z,49.96
2019-04-22T02:20:54.517Z,49.96
2019-04-22T02:22:04.078Z,49.96
2019-04-22T02:23:16.036Z,49.96
2019-04-22T02:24:02.697Z,49.96
2019-04-22T02:25:06.721Z,49.85
2019-04-22T02:26:02.409Z,49.75
2019-04-22T02:27:09.175Z,49.65
2019-04-22T02:28:07.337Z,49.65
2019-04-22T02:29:00.117Z,49.44
2019-04-22T02:29:58.411Z,49.55
2019-04-22T02:31:20.838Z,49.55
2019-04-22T02:32:17.078Z,49.65
2019-04-22T02:33:25.432Z,49.32
2019-04-22T02:34:13.699Z,49.73
2019-04-22T02:35:03.679Z,49.65
2019-04-22T02:36:16.664Z,49.96
2019-04-22T02:37:03.204Z,49.85
2019-04-22T02:38:10.391Z,49.65
2019-04-22T02:39:10.125Z,50.06
2019-04-22T02:40:03.646Z,50.57
2019-04-22T02:42:02.930Z,50.26
2019-04-22T02:43:11.919Z,50.39
2019-04-22T02:44:08.414Z,50.39
2019-04-22T02:45:04.567Z,50.39
2019-04-22T02:47:14.353Z,50.39
2019-04-22T02:48:11.715Z,50.49
2019-04-22T02:49:16.092Z,50.49
2019-04-22T02:51:12.563Z,50.59
2019-04-22T02:52:00.432Z,50.59
2019-04-22T02:53:01.291Z,50.59
2019-04-22T02:55:23.629Z,50.59
2019-04-22T02:56:13.338Z,50.49
2019-04-22T02:57:19.408Z,50.49
2019-04-22T02:58:03.580Z,50.49
2019-04-22T02:59:09.961Z,50.49
2019-04-22T03:00:14.456Z,50.49
2019-04-22T03:02:03.298Z,50.59
2019-04-22T03:06:59.760Z,50.93
2019-04-22T03:08:06.758Z,51.13
2019-04-22T03:09:16.293Z,51.23
2019-04-22T03:10:09.122Z,51.36
2019-04-22T03:12:12.279Z,51.77
2019-04-22T03:13:09.004Z,51.98
2019-04-22T03:14:59.953Z,52.31
2019-04-22T03:17:06.107Z,52.72
2019-04-22T03:20:04.058Z,53.15
2019-04-22T03:21:13.994Z,53.36
2019-04-22T03:22:00.480Z,53.46
2019-04-22T03:23:17.673Z,53.49
2019-04-22T03:25:32.407Z,53.69
2019-04-22T03:27:00.871Z,53.89
2019-04-22T03:28:05.109Z,54.00
2019-04-22T03:31:06.658Z,54.10
2019-04-22T03:33:19.041Z,54.21
2019-04-22T03:34:55.392Z,54.10
2019-04-22T03:37:55.907Z,53.89
2019-04-22T03:41:39.274Z,53.77
2019-04-22T03:42:09.887Z,53.66
2019-04-22T03:44:21.420Z,53.56
2019-04-22T03:45:10.210Z,53.66
2019-04-22T03:46:05.822Z,53.56
2019-04-22T03:48:02.754Z,53.66
2019-04-22T03:51:11.509Z,53.66
2019-04-22T03:53:09.843Z,53.46
2019-04-22T03:54:11.116Z,53.25
2019-04-22T03:55:09.147Z,53.05
2019-04-22T03:56:18.808Z,53.12
2019-04-22T03:59:27.866Z,53.12
2019-04-22T04:00:08.394Z,53.12
2019-04-22T04:01:06.413Z,52.82
2019-04-22T04:04:16.215Z,52.72
2019-04-22T04:04:58.803Z,52.92
2019-04-22T04:05:58.932Z,53.05
2019-04-22T04:08:20.178Z,53.36
2019-04-22T04:09:14.306Z,53.59
2019-04-22T04:10:13.042Z,53.89
2019-04-22T04:10:58.013Z,54.10
2019-04-22T04:12:04.409Z,54.21
2019-04-22T04:13:16.772Z,54.41
2019-04-22T04:14:09.580Z,54.64
2019-04-22T04:16:07.792Z,54.74
2019-04-22T04:17:09.307Z,54.85
2019-04-22T04:19:13.086Z,54.95
2019-04-22T04:22:14.372Z,55.28
2019-04-22T04:24:27.488Z,55.49
2019-04-22T04:25:22.070Z,55.69
2019-04-22T04:26:01.786Z,55.69
2019-04-22T04:27:22.293Z,56.02
2019-04-22T04:31:10.770Z,56.64
2019-04-22T04:32:18.872Z,56.64
2019-04-22T04:33:13.393Z,56.74
2019-04-22T04:34:17.201Z,56.74
2019-04-22T04:36:19.195Z,56.74
2019-04-22T04:37:22.773Z,56.74
2019-04-22T04:40:11.703Z,56.62
2019-04-22T04:41:08.813Z,56.51
2019-04-22T04:42:16.169Z,56.51
2019-04-22T04:42:58.819Z,56.51
2019-04-22T04:44:15.257Z,56.51
2019-04-22T04:45:25.819Z,56.38
2019-04-22T04:46:06.861Z,56.18
2019-04-22T04:47:11.815Z,56.08
2019-04-22T04:49:09.758Z,55.85
2019-04-22T04:50:09.770Z,55.74
2019-04-22T04:51:15.972Z,55.72
2019-04-22T04:52:06.650Z,55.51
2019-04-22T04:54:12.914Z,54.90
2019-04-22T04:56:11.857Z,54.77
2019-04-22T04:57:28.252Z,54.46
2019-04-22T04:59:17.281Z,54.25
2019-04-22T05:01:03.833Z,54.15
2019-04-22T05:02:06.424Z,54.46
2019-04-22T05:05:16.789Z,54.36
2019-04-22T05:06:09.978Z,54.36
2019-04-22T05:08:32.996Z,54.77
2019-04-22T05:09:15.259Z,54.66
2019-04-22T05:10:18.757Z,54.66
2019-04-22T05:11:10.970Z,54.57
2019-04-22T05:12:13.040Z,54.44
2019-04-22T05:13:39.690Z,54.44
2019-04-22T05:14:05.548Z,54.44
2019-04-22T05:15:09.178Z,54.72
2019-04-22T05:16:17.363Z,54.61
2019-04-22T05:17:02.335Z,54.72
2019-04-22T05:20:04.803Z,54.79
2019-04-22T05:21:09.751Z,55.28
2019-04-22T05:22:05.508Z,55.08
2019-04-22T05:23:00.659Z,54.95
2019-04-22T05:24:15.097Z,54.54
2019-04-22T05:25:00.181Z,54.03
2019-04-22T05:26:05.859Z,54.31
2019-04-22T05:27:05.606Z,53.69
2019-04-22T05:27:57.614Z,52.98
2019-04-22T05:29:03.726Z,52.87
2019-04-22T05:30:23.447Z,52.87
2019-04-22T05:31:05.050Z,53.26
2019-04-22T05:31:59.743Z,52.55
2019-04-22T05:32:54.201Z,52.65
2019-04-22T05:33:56.856Z,52.42
2019-04-22T05:34:59.685Z,52.72
2019-04-22T05:36:01.484Z,52.01
2019-04-22T05:37:00.924Z,51.27
2019-04-22T05:38:02.852Z,51.68
2019-04-22T05:39:00.078Z,52.09
2019-04-22T05:40:00.041Z,51.98
2019-04-22T05:40:56.349Z,51.89
2019-04-22T05:41:55.037Z,51.96
2019-04-22T05:42:55.981Z,51.55
2019-04-22T05:44:00.496Z,51.76
2019-04-22T05:44:59.053Z,52.17
2019-04-22T05:45:58.820Z,52.34
2019-04-22T05:46:54.456Z,52.04
2019-04-22T05:47:57.860Z,52.45
2019-04-22T05:48:59.861Z,52.14
2019-04-22T05:49:55.174Z,52.55
2019-04-22T05:50:56.470Z,52.75
2019-04-22T05:51:54.603Z,53.36
2019-04-22T05:52:55.238Z,53.36
2019-04-22T05:54:01.337Z,52.96
2019-04-22T05:54:59.570Z,52.75
2019-04-22T05:55:59.756Z,51.73
2019-04-22T05:56:51.463Z,51.02
2019-04-22T05:57:59.668Z,51.84
2019-04-22T05:58:58.798Z,52.34
2019-04-22T06:00:01.526Z,52.42
2019-04-22T06:01:21.847Z,52.53
2019-04-22T06:02:05.255Z,51.91
2019-04-22T06:02:56.786Z,52.01
2019-04-22T06:04:06.680Z,51.58
2019-04-22T06:05:01.689Z,50.67
2019-04-22T06:05:55.684Z,50.87
2019-04-22T06:06:57.147Z,51.15
2019-04-22T06:08:00.107Z,51.25
2019-04-22T06:08:58.770Z,51.05
2019-04-22T06:10:02.341Z,50.64
2019-04-22T06:11:04.398Z,50.95
2019-04-22T06:11:51.579Z,51.05
2019-04-22T06:12:48.002Z,50.62
2019-04-22T06:13:53.426Z,50.21
2019-04-22T06:14:58.206Z,50.31
2019-04-22T06:15:54.354Z,49.90
2019-04-22T06:16:58.714Z,48.58
2019-04-22T06:18:02.191Z,48.86
2019-04-22T06:19:00.953Z,48.96
2019-04-22T06:19:57.510Z,49.37
2019-04-22T06:20:59.425Z,49.07
2019-04-22T06:21:57.942Z,49.17
2019-04-22T06:22:56.869Z,48.76
2019-04-22T06:24:19.703Z,48.64
2019-04-22T06:25:02.983Z,48.13
2019-04-22T06:27:08.076Z,49.04
2019-04-22T06:27:54.186Z,49.04
2019-04-22T06:29:54.753Z,47.52
2019-04-22T06:32:17.507Z,48.13
2019-04-22T06:33:05.827Z,48.51
2019-04-22T06:34:02.372Z,47.60
2019-04-22T06:35:08.019Z,47.52
2019-04-22T06:35:56.247Z,47.60
2019-04-22T06:37:05.652Z,47.39
2019-04-22T06:38:19.130Z,47.50
2019-04-22T06:38:53.283Z,48.00
2019-04-22T06:39:50.621Z,47.47
2019-04-22T06:41:04.073Z,47.47
2019-04-22T06:42:01.005Z,46.86
2019-04-22T06:43:03.178Z,48.19
2019-04-22T06:43:58.384Z,47.75
2019-04-22T06:45:02.784Z,47.55
2019-04-22T06:45:51.615Z,47.14
2019-04-22T06:47:00.681Z,47.96
2019-04-22T06:49:01.354Z,47.53
2019-04-22T06:49:57.355Z,47.22
2019-04-22T06:50:52.810Z,46.90
2019-04-22T06:52:05.989Z,46.80
2019-04-22T06:52:56.714Z,45.58
2019-04-22T06:53:55.909Z,45.89
2019-04-22T06:54:59.613Z,46.39
2019-04-22T06:56:00.476Z,44.44
2019-04-22T06:56:57.649Z,45.17
2019-04-22T06:57:58.195Z,45.25
2019-04-22T06:58:52.339Z,45.36
2019-04-22T07:00:00.103Z,45.76
2019-04-22T07:00:59.400Z,45.76
2019-04-22T07:03:27.153Z,44.54
2019-04-22T07:04:58.400Z,44.95
2019-04-22T07:05:57.037Z,46.14
2019-04-22T07:08:04.378Z,44.52
2019-04-22T07:09:14.509Z,44.60
2019-04-22T07:10:11.531Z,45.11
2019-04-22T07:10:50.727Z,45.72
2019-04-22T07:12:02.180Z,44.68
2019-04-22T07:12:54.290Z,44.10
2019-04-22T07:14:53.549Z,43.37
2019-04-22T07:16:56.150Z,44.46
2019-04-22T07:17:55.096Z,44.56
2019-04-22T07:18:54.476Z,44.46
2019-04-22T07:19:56.061Z,43.35
2019-04-22T07:20:57.962Z,42.43
2019-04-22T07:21:57.172Z,43.35
2019-04-22T07:22:54.056Z,42.03
2019-04-22T07:24:16.256Z,43.04
2019-04-22T07:25:12.848Z,42.33
2019-04-22T07:25:56.650Z,43.65
2019-04-22T07:26:57.599Z,42.54
2019-04-22T07:28:56.479Z,41.80
2019-04-22T07:30:02.038Z,41.60
2019-04-22T07:31:01.933Z,42.41
2019-04-22T07:32:00.281Z,42.61
2019-04-22T07:33:11.554Z,42.40
2019-04-22T07:34:02.276Z,43.10
2019-04-22T07:35:01.137Z,42.98
2019-04-22T07:36:16.915Z,43.79
2019-04-22T07:36:59.017Z,43.69
2019-04-22T07:37:54.098Z,42.58
2019-04-22T07:38:56.480Z,40.73
2019-04-22T07:39:50.241Z,41.44
2019-04-22T07:41:56.133Z,42.66
2019-04-22T07:42:59.217Z,43.34
2019-04-22T07:44:56.241Z,41.61
2019-04-22T07:45:53.601Z,39.99
2019-04-22T07:48:02.756Z,39.70
2019-04-22T07:48:57.636Z,39.99
2019-04-22T07:49:59.224Z,39.08
2019-04-22T07:51:56.195Z,40.17
2019-04-22T07:52:51.397Z,41.39
2019-04-22T07:53:56.090Z,39.06
2019-04-22T07:54:58.514Z,40.68
2019-04-22T07:56:00.187Z,39.85
2019-04-22T07:57:02.508Z,39.06
2019-04-22T07:57:52.383Z,39.65
2019-04-22T07:58:55.632Z,38.73
2019-04-22T07:59:58.033Z,38.22
2019-04-22T08:00:58.625Z,38.62
2019-04-22T08:01:55.809Z,39.13
2019-04-22T08:02:59.704Z,39.43
2019-04-22T08:04:21.681Z,37.51
2019-04-22T08:06:08.695Z,36.89
2019-04-22T08:06:58.930Z,37.90
2019-04-22T08:07:59.201Z,38.20
2019-04-22T08:09:01.728Z,38.39
2019-04-22T08:10:00.063Z,38.60
2019-04-22T08:10:57.910Z,39.19
2019-04-22T08:11:52.701Z,37.38
2019-04-22T08:13:54.661Z,37.46
2019-04-22T08:14:52.075Z,38.25
2019-04-22T08:15:58.522Z,36.42
2019-04-22T08:17:01.484Z,35.61
2019-04-22T08:18:11.343Z,35.41
2019-04-22T08:19:04.291Z,34.02
2019-04-22T08:19:55.792Z,33.82
2019-04-22T08:20:54.017Z,35.11
2019-04-22T08:21:56.276Z,34.02
2019-04-22T08:23:00.857Z,36.02
2019-04-22T08:23:56.845Z,33.48
2019-04-22T08:24:58.553Z,32.70
2019-04-22T08:25:55.473Z,32.28
2019-04-22T08:26:58.120Z,32.50
2019-04-22T08:27:57.036Z,32.01
2019-04-22T08:28:59.341Z,34.02
2019-04-22T08:30:06.451Z,33.91
2019-04-22T08:30:56.680Z,32.31
2019-04-22T08:31:56.621Z,32.71
2019-04-22T08:32:53.206Z,32.71
2019-04-22T08:33:54.368Z,32.09
2019-04-22T08:34:55.389Z,32.51
2019-04-22T08:36:07.215Z,32.39
2019-04-22T08:37:34.289Z,32.59
2019-04-22T08:38:02.417Z,33.00
2019-04-22T08:40:01.935Z,31.79
2019-04-22T08:40:56.989Z,32.48
2019-04-22T08:41:55.326Z,30.88
2019-04-22T08:43:20.927Z,32.29
2019-04-22T08:44:02.447Z,31.68
2019-04-22T08:45:57.117Z,30.67
2019-04-22T08:47:59.165Z,30.55
2019-04-22T08:48:55.773Z,29.45
2019-04-22T08:50:04.621Z,30.55
2019-04-22T08:50:53.127Z,30.44
2019-04-22T08:51:58.867Z,29.95
2019-04-22T08:53:00.705Z,29.65
2019-04-22T08:53:59.856Z,29.44
2019-04-22T08:55:01.354Z,29.93
2019-04-22T08:56:04.706Z,29.12
2019-04-22T08:56:54.514Z,28.50
2019-04-22T08:58:15.352Z,28.10
2019-04-22T08:58:59.520Z,28.42
2019-04-22T08:59:59.066Z,28.22
2019-04-22T09:00:57.179Z,27.73
2019-04-22T09:01:51.851Z,28.83
2019-04-22T09:03:58.062Z,28.63
2019-04-22T09:04:54.003Z,29.22
2019-04-22T09:07:07.761Z,27.00
2019-04-22T09:07:52.535Z,26.78
2019-04-22T09:09:55.410Z,27.37
2019-04-22T09:10:57.121Z,27.69
2019-04-22T09:12:03.722Z,28.19
2019-04-22T09:13:55.116Z,29.58
2019-04-22T09:14:49.733Z,27.29
2019-04-22T09:15:58.874Z,28.30
2019-04-22T09:17:02.247Z,27.97
2019-04-22T09:17:55.843Z,28.20
2019-04-22T09:18:53.802Z,26.58
2019-04-22T09:19:56.342Z,27.89
2019-04-22T09:21:02.147Z,27.58
2019-04-22T09:22:56.911Z,30.78
2019-04-22T09:23:58.382Z,31.07
2019-04-22T09:24:53.931Z,30.77
2019-04-22T09:25:55.927Z,29.15
2019-04-22T09:26:59.327Z,29.65
2019-04-22T09:28:08.633Z,28.55
2019-04-22T09:28:59.475Z,29.45
2019-04-22T09:29:50.085Z,28.84
2019-04-22T09:30:55.262Z,28.65
2019-04-22T09:32:00.425Z,28.46
2019-04-22T09:33:02.778Z,29.48
2019-04-22T09:33:53.191Z,28.79
2019-04-22T09:34:51.384Z,28.99
2019-04-22T09:36:01.824Z,29.60
2019-04-22T09:36:58.670Z,30.88
2019-04-22T09:37:57.465Z,29.60
2019-04-22T09:38:52.912Z,29.49
2019-04-22T09:40:03.317Z,29.78
2019-04-22T09:40:52.471Z,29.68
2019-04-22T09:41:51.075Z,29.68
2019-04-22T09:42:56.050Z,28.67
2019-04-22T09:43:58.319Z,28.48
2019-04-22T09:44:55.484Z,27.58
2019-04-22T09:45:53.164Z,27.29
2019-04-22T09:46:52.439Z,29.18
2019-04-22T09:49:00.292Z,29.99
2019-04-22T09:50:09.724Z,28.20
2019-04-22T09:50:52.541Z,29.39
2019-04-22T09:52:00.002Z,29.50
2019-04-22T09:52:54.633Z,30.58
2019-04-22T09:54:01.169Z,29.88
2019-04-22T09:54:59.863Z,30.18
2019-04-22T09:55:57.100Z,28.99
2019-04-22T09:56:57.088Z,29.90
2019-04-22T09:57:52.761Z,29.60
2019-04-22T09:58:55.692Z,30.50
2019-04-22T09:59:57.783Z,30.40
2019-04-22T10:01:02.758Z,29.49
2019-04-22T10:02:10.203Z,30.48
2019-04-22T10:06:02.505Z,29.48
2019-04-22T10:06:44.363Z,29.18
2019-04-22T10:09:12.997Z,28.98
2019-04-22T10:11:00.785Z,31.09
2019-04-22T10:11:50.599Z,30.58
2019-04-22T10:12:54.177Z,30.19
2019-04-22T10:14:58.162Z,30.38
2019-04-22T10:15:59.040Z,29.78
2019-04-22T10:16:57.981Z,30.08
2019-04-22T10:18:01.101Z,27.79
2019-04-22T10:19:53.332Z,31.00
2019-04-22T10:20:54.463Z,30.18
2019-04-22T10:21:59.770Z,29.18
2019-04-22T10:22:53.236Z,28.48
2019-04-22T10:23:59.584Z,27.89
2019-04-22T10:24:55.294Z,28.17
2019-04-22T10:25:59.434Z,28.88
2019-04-22T10:26:50.606Z,29.39
2019-04-22T10:27:55.214Z,28.98
2019-04-22T10:30:00.359Z,29.06
2019-04-22T10:31:17.119Z,29.95
2019-04-22T10:31:55.841Z,29.25
2019-04-22T10:32:52.699Z,28.46
2019-04-22T10:33:46.646Z,28.66
2019-04-22T10:34:37.902Z,28.26
2019-04-22T10:35:32.150Z,27.78
2019-04-22T10:36:27.866Z,27.37
2019-04-22T10:37:28.164Z,27.99
2019-04-22T10:38:28.460Z,27.87
2019-04-22T10:39:39.678Z,28.09
2019-04-22T10:40:28.446Z,28.09
2019-04-22T10:41:28.458Z,30.77
2019-04-22T10:42:27.401Z,29.16
2019-04-22T10:43:27.553Z,28.26
2019-04-22T10:44:28.787Z,27.47
2019-04-22T10:45:28.232Z,26.97
2019-04-22T10:46:28.331Z,28.56
2019-04-22T10:47:27.969Z,26.97
2019-04-22T10:48:28.333Z,27.47
2019-04-22T10:49:28.603Z,27.56
2019-04-22T10:50:28.242Z,27.08
2019-04-22T10:51:28.564Z,26.27
2019-04-22T10:52:27.684Z,26.56
2019-04-22T10:53:27.298Z,26.96
2019-04-22T10:54:27.445Z,27.58
2019-04-22T10:55:27.539Z,27.36
2019-04-22T10:56:27.342Z,25.67
2019-04-22T10:57:27.737Z,27.36
2019-04-22T10:58:28.614Z,27.66
2019-04-22T10:59:27.210Z,26.27
2019-04-22T11:00:27.375Z,27.47
2019-04-22T11:01:27.628Z,26.35
2019-04-22T11:02:27.662Z,27.16
2019-04-22T11:03:28.372Z,27.85
2019-04-22T11:04:28.064Z,28.45
2019-04-22T11:05:28.248Z,28.16
2019-04-22T11:06:27.567Z,28.56
2019-04-22T11:07:36.277Z,28.66
2019-04-22T11:08:37.905Z,28.88
2019-04-22T11:09:29.055Z,28.96
2019-04-22T11:10:46.831Z,28.55
2019-04-22T11:11:41.112Z,28.06
2019-04-22T11:12:30.807Z,28.16
2019-04-22T11:13:28.307Z,27.89
2019-04-22T11:14:28.689Z,30.07
2019-04-22T11:15:27.033Z,29.66
2019-04-22T11:16:27.921Z,28.88
2019-04-22T11:17:27.185Z,29.38
2019-04-22T11:18:27.396Z,29.78
2019-04-22T11:19:27.765Z,29.27
2019-04-22T11:20:27.609Z,30.07
2019-04-22T11:21:27.437Z,26.76
2019-04-22T11:22:31.549Z,25.65
2019-04-22T11:23:28.812Z,26.56
2019-04-22T11:24:28.445Z,26.56
2019-04-22T11:25:27.741Z,28.16
2019-04-22T11:26:28.227Z,27.06
2019-04-22T11:27:27.032Z,27.55
2019-04-22T11:28:27.742Z,25.76
2019-04-22T11:29:27.822Z,26.26
2019-04-22T11:30:28.247Z,25.74
2019-04-22T11:31:28.185Z,26.84
2019-04-22T11:32:26.870Z,25.74
2019-04-22T11:33:26.869Z,24.64
2019-04-22T11:34:26.991Z,24.74
2019-04-22T11:35:27.957Z,24.55
2019-04-22T11:36:30.617Z,22.25
2019-04-22T11:37:28.169Z,23.55
2019-04-22T11:38:26.939Z,22.85
2019-04-22T11:39:30.376Z,24.85
2019-04-22T11:40:34.807Z,25.15
2019-04-22T11:41:27.893Z,25.04
2019-04-22T11:42:28.115Z,24.85
2019-04-22T11:43:28.344Z,25.57
2019-04-22T11:44:27.617Z,24.96
2019-04-22T11:45:27.094Z,26.07
2019-04-22T11:46:27.313Z,26.07
2019-04-22T11:47:27.471Z,24.44
2019-04-22T11:48:27.010Z,23.75
2019-04-22T11:49:27.881Z,25.74
2019-04-22T11:50:27.956Z,24.44
2019-04-22T11:51:27.626Z,23.44
2019-04-22T11:52:26.969Z,23.93
2019-04-22T11:53:27.023Z,24.23
2019-04-22T11:54:26.624Z,24.14
2019-04-22T11:55:26.885Z,25.45
2019-04-22T11:56:27.128Z,26.43
2019-04-22T11:57:26.601Z,24.35
2019-04-22T11:58:26.624Z,24.83
2019-04-22T11:59:26.852Z,24.72
2019-04-22T12:00:27.060Z,25.32
2019-04-22T12:01:26.758Z,25.63
2019-04-22T12:02:27.167Z,25.65
2019-04-22T12:03:27.179Z,25.95
2019-04-22T12:04:27.639Z,25.66
2019-04-22T12:05:28.049Z,25.84
2019-04-22T12:06:26.506Z,26.84
2019-04-22T12:07:27.026Z,27.15
2019-04-22T12:08:27.109Z,26.64
2019-04-22T12:09:27.797Z,26.54
2019-04-22T12:10:34.670Z,27.23
2019-04-22T12:11:28.254Z,24.84
2019-04-22T12:12:27.803Z,25.33
2019-04-22T12:13:26.455Z,26.84
2019-04-22T12:14:27.768Z,26.43
2019-04-22T12:15:26.770Z,26.73
2019-04-22T12:16:27.384Z,25.14
2019-04-22T12:17:26.582Z,26.03
2019-04-22T12:18:27.130Z,25.93
2019-04-22T12:19:27.141Z,25.56
2019-04-22T12:20:27.543Z,26.25
2019-04-22T12:21:26.707Z,26.66
2019-04-22T12:22:26.946Z,27.25
2019-04-22T12:23:27.356Z,26.34
2019-04-22T12:24:28.104Z,26.84
2019-04-22T12:25:36.102Z,25.65
2019-04-22T12:26:28.634Z,26.43
2019-04-22T12:27:28.331Z,26.23
2019-04-22T12:28:26.841Z,24.84
2019-04-22T12:29:26.945Z,25.26
2019-04-22T12:30:27.740Z,25.96
2019-04-22T12:31:27.392Z,25.85
2019-04-22T12:32:27.397Z,26.35
2019-04-22T12:33:27.729Z,25.54
2019-04-22T12:34:26.207Z,26.03
2019-04-22T12:35:26.309Z,25.23
2019-04-22T12:36:26.612Z,25.15
2019-04-22T12:37:35.208Z,25.05
2019-04-22T12:38:27.416Z,25.46
2019-04-22T12:39:27.458Z,26.25
2019-04-22T12:40:37.353Z,25.35
2019-04-22T12:41:27.793Z,26.43
2019-04-22T12:42:27.129Z,25.83
2019-04-22T12:43:27.797Z,26.34
2019-04-22T12:44:26.613Z,26.93
2019-04-22T12:45:26.632Z,25.65
2019-04-22T12:46:26.255Z,26.25
2019-04-22T12:47:28.089Z,26.54
2019-04-22T12:48:27.337Z,27.23
2019-04-22T12:49:26.139Z,25.84
2019-04-22T12:50:29.900Z,26.15
2019-04-22T12:51:27.267Z,26.04
2019-04-22T12:52:34.032Z,25.05
2019-04-22T12:53:28.046Z,24.57
2019-04-22T12:54:26.926Z,25.35
2019-04-22T12:55:27.886Z,27.12
2019-04-22T12:56:25.981Z,25.82
2019-04-22T12:57:25.967Z,25.33
2019-04-22T12:58:27.554Z,25.43
2019-04-22T12:59:25.944Z,24.33
2019-04-22T13:00:26.637Z,23.32
2019-04-22T13:01:26.814Z,24.92
2019-04-22T13:02:27.042Z,24.23
2019-04-22T13:03:26.409Z,23.73
2019-04-22T13:04:25.924Z,23.33
2019-04-22T13:05:26.920Z,24.52
2019-04-22T13:06:25.972Z,25.11
2019-04-22T13:07:26.033Z,24.62
2019-04-22T13:08:25.882Z,24.32
2019-04-22T13:09:27.322Z,23.14
2019-04-22T13:10:29.694Z,24.64
2019-04-22T13:11:32.058Z,24.34
2019-04-22T13:12:26.808Z,25.33
2019-04-22T13:13:27.187Z,24.44
2019-04-22T13:14:27.221Z,24.64
2019-04-22T13:15:26.695Z,24.15
2019-04-22T13:16:26.961Z,25.05
2019-04-22T13:17:27.116Z,24.37
2019-04-22T13:18:37.144Z,25.46
2019-04-22T13:19:28.234Z,24.87
2019-04-22T13:20:26.128Z,24.85
2019-04-22T13:21:26.906Z,24.26
2019-04-22T13:22:26.963Z,23.68
2019-04-22T13:23:25.767Z,25.37
2019-04-22T13:24:27.888Z,23.56
2019-04-22T13:25:28.311Z,25.15
2019-04-22T13:26:27.145Z,22.75
2019-04-22T13:27:26.881Z,23.56
2019-04-22T13:28:27.127Z,23.68
2019-04-22T13:29:25.714Z,24.66
2019-04-22T13:30:26.283Z,24.07
2019-04-22T13:31:26.826Z,23.66
2019-04-22T13:32:26.868Z,23.16
2019-04-22T13:33:25.602Z,23.37
2019-04-22T13:34:31.561Z,23.76
2019-04-22T13:35:27.920Z,23.37
2019-04-22T13:36:27.653Z,23.26
2019-04-22T13:37:25.543Z,23.76
2019-04-22T13:38:26.906Z,23.37
2019-04-22T13:39:27.014Z,23.37
2019-04-22T13:40:25.580Z,23.69
2019-04-22T13:41:35.737Z,23.58
2019-04-22T13:42:27.566Z,23.99
2019-04-22T13:43:26.743Z,23.68
2019-04-22T13:44:27.994Z,24.88
2019-04-22T13:45:25.635Z,24.38
2019-04-22T13:46:26.367Z,25.38
2019-04-22T13:47:42.397Z,24.29
2019-04-22T13:48:48.408Z,24.89
2019-04-22T13:50:01.130Z,24.90
2019-04-22T13:52:00.975Z,27.20
2019-04-22T13:53:00.545Z,27.10
2019-04-22T13:54:31.382Z,26.08
2019-04-22T13:55:53.210Z,25.10
2019-04-22T13:56:48.043Z,24.70
2019-04-22T13:57:44.137Z,24.31
2019-04-22T13:58:43.145Z,24.31
2019-04-22T13:59:35.915Z,25.10
2019-04-22T14:00:26.945Z,25.31
2019-04-22T14:01:25.332Z,24.81
2019-04-22T14:02:26.665Z,25.23
2019-04-22T14:03:26.545Z,26.42
2019-04-22T14:04:25.293Z,26.62
2019-04-22T14:05:26.797Z,25.42
2019-04-22T14:06:26.805Z,25.83
2019-04-22T14:07:25.250Z,27.53
2019-04-22T14:08:25.219Z,26.23
2019-04-22T14:09:26.441Z,26.33
2019-04-22T14:10:26.840Z,26.13
2019-04-22T14:11:34.531Z,26.14
2019-04-22T14:12:26.647Z,26.84
2019-04-22T14:13:25.883Z,24.93
2019-04-22T14:14:26.007Z,26.04
2019-04-22T14:15:25.151Z,25.44
2019-04-22T14:16:25.137Z,25.74
2019-04-22T14:17:25.238Z,25.94
2019-04-22T14:18:25.885Z,26.75
2019-04-22T14:19:26.010Z,26.96
2019-04-22T14:20:27.707Z,27.26
2019-04-22T14:21:25.196Z,26.35
2019-04-22T14:22:26.371Z,25.74
2019-04-22T14:23:26.686Z,26.34
2019-04-22T14:24:25.969Z,27.75
2019-04-22T14:25:25.052Z,26.14
2019-04-22T14:26:25.167Z,26.43
2019-04-22T14:27:34.293Z,26.65
2019-04-22T14:28:27.288Z,26.65
2019-04-22T14:29:26.113Z,27.36
2019-04-22T14:30:26.296Z,28.17
2019-04-22T14:31:26.535Z,28.57
2019-04-22T14:32:28.009Z,28.07
2019-04-22T14:33:25.949Z,28.18
2019-04-22T14:34:26.590Z,27.58
2019-04-22T14:35:25.099Z,27.87